createdAt,value
2023-02-17T00:01:10.901Z,7.40
2023-02-17T00:03:14.104Z,7.41
2023-02-17T00:05:17.428Z,7.42
2023-02-17T00:07:20.779Z,7.43
2023-02-17T00:09:25.642Z,7.44
2023-02-17T00:11:29.494Z,7.45
2023-02-17T00:13:32.734Z,7.45
2023-02-17T00:15:35.912Z,7.47
2023-02-17T00:17:39.383Z,7.48
2023-02-17T00:19:42.724Z,7.48
2023-02-17T00:21:45.853Z,7.49
2023-02-17T00:23:50.166Z,7.50
2023-02-17T00:25:54.823Z,7.52
2023-02-17T00:27:57.996Z,7.52
2023-02-17T00:30:01.242Z,7.54
2023-02-17T00:32:05.011Z,7.54
2023-02-17T00:34:08.353Z,7.55
2023-02-17T00:36:14.598Z,7.56
2023-02-17T00:38:17.831Z,7.57
2023-02-17T00:40:21.183Z,7.58
2023-02-17T00:42:25.737Z,7.59
2023-02-17T00:44:29.106Z,7.60
2023-02-17T00:46:32.889Z,7.61
2023-02-17T00:48:36.805Z,7.62
2023-02-17T00:50:41.114Z,7.64
2023-02-17T00:52:44.664Z,7.65
2023-02-17T00:54:48.410Z,7.67
2023-02-17T00:56:51.851Z,7.67
2023-02-17T00:58:56.604Z,7.68
2023-02-17T01:01:00.349Z,7.70
2023-02-17T01:03:03.811Z,7.71
2023-02-17T01:05:08.370Z,7.73
2023-02-17T01:07:11.789Z,7.72
2023-02-17T01:09:16.674Z,7.74
2023-02-17T01:11:20.654Z,7.73
2023-02-17T01:13:24.086Z,7.75
2023-02-17T01:15:28.780Z,7.76
2023-02-17T01:17:32.448Z,7.76
2023-02-17T01:19:35.858Z,7.77
2023-02-17T01:21:39.348Z,7.78
2023-02-17T01:23:47.226Z,7.78
2023-02-17T01:25:51.589Z,7.77
2023-02-17T01:27:55.681Z,7.78
2023-02-17T01:29:59.166Z,7.78
2023-02-17T01:32:05.301Z,7.79
2023-02-17T01:34:08.827Z,7.80
2023-02-17T01:36:15.641Z,7.82
2023-02-17T01:38:19.035Z,7.83
2023-02-17T01:40:22.503Z,7.84
2023-02-17T01:42:26.210Z,7.84
2023-02-17T01:44:33.898Z,7.84
2023-02-17T01:46:38.505Z,7.87
2023-02-17T01:48:48.364Z,7.87
2023-02-17T01:50:55.255Z,7.88
2023-02-17T01:53:01.887Z,7.89
2023-02-17T01:55:09.374Z,7.90
2023-02-17T01:57:14.508Z,7.91
2023-02-17T01:59:20.023Z,7.92
2023-02-17T02:01:25.226Z,7.93
2023-02-17T02:03:31.459Z,7.93
2023-02-17T02:05:37.688Z,7.94
2023-02-17T02:07:44.867Z,7.97
2023-02-17T02:09:53.250Z,7.98
2023-02-17T02:11:56.701Z,8.00
2023-02-17T02:14:00.738Z,8.01
2023-02-17T02:16:12.761Z,8.01
2023-02-17T02:18:31.621Z,8.02
2023-02-17T02:21:05.099Z,8.05
2023-02-17T02:23:39.801Z,8.06
2023-02-17T02:26:09.743Z,8.07
2023-02-17T02:28:25.770Z,8.08
2023-02-17T02:31:11.461Z,8.09
2023-02-17T02:33:24.990Z,8.10
2023-02-17T02:35:35.149Z,8.11
2023-02-17T02:37:44.248Z,8.11
2023-02-17T02:39:50.280Z,8.12
2023-02-17T02:41:56.832Z,8.13
2023-02-17T02:44:04.934Z,8.15
2023-02-17T02:46:10.247Z,8.15
2023-02-17T02:48:14.350Z,8.18
2023-02-17T02:50:23.754Z,8.18
2023-02-17T02:52:38.420Z,8.19
2023-02-17T02:54:53.991Z,8.20
2023-02-17T02:57:13.421Z,8.22
2023-02-17T02:59:28.231Z,8.23
2023-02-17T03:01:39.348Z,8.23
2023-02-17T03:03:50.122Z,8.24
2023-02-17T03:05:59.633Z,8.25
2023-02-17T03:08:09.865Z,8.26
2023-02-17T03:10:15.633Z,8.28
2023-02-17T03:12:20.442Z,8.29
2023-02-17T03:14:24.829Z,8.31
2023-02-17T03:16:28.376Z,8.31
2023-02-17T03:18:33.616Z,8.32
2023-02-17T03:20:39.962Z,8.31
2023-02-17T03:22:48.284Z,8.32
2023-02-17T03:24:52.548Z,8.33
2023-02-17T03:26:56.164Z,8.34
2023-02-17T03:28:59.581Z,8.35
2023-02-17T03:31:03.091Z,8.35
2023-02-17T03:33:06.470Z,8.37
2023-02-17T03:35:10.741Z,8.39
2023-02-17T03:37:14.169Z,8.40
2023-02-17T03:39:19.002Z,8.41
2023-02-17T03:41:22.368Z,8.42
2023-02-17T03:43:25.734Z,8.43
2023-02-17T03:45:29.165Z,8.43
2023-02-17T03:47:32.837Z,8.44
2023-02-17T03:49:36.309Z,8.45
2023-02-17T03:51:40.135Z,8.47
2023-02-17T03:53:44.726Z,8.48
2023-02-17T03:55:53.722Z,8.49
2023-02-17T03:57:57.170Z,8.50
2023-02-17T04:00:00.586Z,8.52
2023-02-17T04:02:04.737Z,8.53
2023-02-17T04:04:08.145Z,8.54
2023-02-17T04:06:12.585Z,8.55
2023-02-17T04:08:16.158Z,8.56
2023-02-17T04:10:19.943Z,8.57
2023-02-17T04:12:24.699Z,8.58
2023-02-17T04:14:28.202Z,8.59
2023-02-17T04:16:31.608Z,8.61
2023-02-17T04:18:35.775Z,8.62
2023-02-17T04:20:39.193Z,8.62
2023-02-17T04:22:42.505Z,8.63
2023-02-17T04:24:45.910Z,8.64
2023-02-17T04:26:49.297Z,8.65
2023-02-17T04:28:54.290Z,8.65
2023-02-17T04:30:59.581Z,8.66
2023-02-17T04:33:03.782Z,8.68
2023-02-17T04:35:07.989Z,8.68
2023-02-17T04:37:11.394Z,8.69
2023-02-17T04:39:14.846Z,8.69
2023-02-17T04:41:18.182Z,8.70
2023-02-17T04:43:21.664Z,8.72
2023-02-17T04:45:26.841Z,8.71
2023-02-17T04:47:30.260Z,8.72
2023-02-17T04:49:33.787Z,8.74
2023-02-17T04:51:37.271Z,8.74
2023-02-17T04:53:40.612Z,8.75
2023-02-17T04:55:44.145Z,8.76
2023-02-17T04:57:47.580Z,8.77
2023-02-17T04:59:50.949Z,8.77
2023-02-17T05:01:55.749Z,8.78
2023-02-17T05:03:59.160Z,8.79
2023-02-17T05:06:02.596Z,8.79
2023-02-17T05:08:06.354Z,8.80
2023-02-17T05:10:10.601Z,8.81
2023-02-17T05:12:14.177Z,8.83
2023-02-17T05:14:17.595Z,8.83
2023-02-17T05:16:21.123Z,8.84
2023-02-17T05:18:25.996Z,8.83
2023-02-17T05:20:29.836Z,8.84
2023-02-17T05:22:33.598Z,8.84
2023-02-17T05:24:38.800Z,8.85
2023-02-17T05:26:42.716Z,8.86
2023-02-17T05:28:46.416Z,8.86
2023-02-17T05:30:50.254Z,8.85
2023-02-17T05:32:53.818Z,8.85
2023-02-17T05:34:58.644Z,8.86
2023-02-17T05:37:02.065Z,8.85
2023-02-17T05:39:05.604Z,8.87
2023-02-17T05:41:09.487Z,8.86
2023-02-17T05:43:12.887Z,8.86
2023-02-17T05:45:16.252Z,8.86
2023-02-17T05:47:19.648Z,8.87
2023-02-17T05:49:23.106Z,8.86
2023-02-17T05:51:27.866Z,8.85
2023-02-17T05:53:31.316Z,8.85
2023-02-17T05:55:34.674Z,8.85
2023-02-17T05:57:38.083Z,8.85
2023-02-17T05:59:41.494Z,8.85
2023-02-17T06:01:44.996Z,8.85
2023-02-17T06:03:48.485Z,8.86
2023-02-17T06:05:52.006Z,8.85
2023-02-17T06:07:56.798Z,8.85
2023-02-17T06:10:00.240Z,8.85
2023-02-17T06:12:03.698Z,8.87
2023-02-17T06:14:07.103Z,8.87
2023-02-17T06:16:10.641Z,8.87
2023-02-17T06:18:14.542Z,8.86
2023-02-17T06:20:18.096Z,8.86
2023-02-17T06:22:21.596Z,8.86
2023-02-17T06:24:26.504Z,8.85
2023-02-17T06:26:30.179Z,8.85
2023-02-17T06:28:35.082Z,8.84
2023-02-17T06:30:38.743Z,8.84
2023-02-17T06:32:42.188Z,8.84
2023-02-17T06:34:45.597Z,8.83
2023-02-17T06:36:49.006Z,8.83
2023-02-17T06:38:52.483Z,8.82
2023-02-17T06:40:57.364Z,8.80
2023-02-17T06:43:00.760Z,8.80
2023-02-17T06:45:06.173Z,8.80
2023-02-17T06:47:09.952Z,8.80
2023-02-17T06:49:13.397Z,8.79
2023-02-17T06:51:16.956Z,8.81
2023-02-17T06:53:20.458Z,8.79
2023-02-17T06:55:23.929Z,8.81
2023-02-17T06:57:28.934Z,8.81
2023-02-17T06:59:33.500Z,8.81
2023-02-17T07:01:36.902Z,8.82
2023-02-17T07:03:40.297Z,8.83
2023-02-17T07:05:44.022Z,8.84
2023-02-17T07:07:47.436Z,8.85
2023-02-17T07:09:50.823Z,8.85
2023-02-17T07:11:54.236Z,8.85
2023-02-17T07:13:59.152Z,8.86
2023-02-17T07:16:02.650Z,8.87
2023-02-17T07:18:06.309Z,8.86
2023-02-17T07:20:10.759Z,8.87
2023-02-17T07:22:14.251Z,8.88
2023-02-17T07:24:17.837Z,8.89
2023-02-17T07:26:21.233Z,8.89
2023-02-17T07:28:24.730Z,8.89
2023-02-17T07:30:29.723Z,8.90
2023-02-17T07:32:33.644Z,8.91
2023-02-17T07:34:38.836Z,8.92
2023-02-17T07:36:42.366Z,8.94
2023-02-17T07:38:45.937Z,8.95
2023-02-17T07:40:49.403Z,8.96
2023-02-17T07:42:52.941Z,8.97
2023-02-17T07:44:56.336Z,8.99
2023-02-17T07:47:01.268Z,9.01
2023-02-17T07:49:04.674Z,9.01
2023-02-17T07:51:10.382Z,9.04
2023-02-17T07:53:13.803Z,9.05
2023-02-17T07:55:17.406Z,9.05
2023-02-17T07:57:20.786Z,9.05
2023-02-17T07:59:24.309Z,9.06
2023-02-17T08:01:27.717Z,9.08
2023-02-17T08:03:32.517Z,9.08
2023-02-17T08:05:35.996Z,9.08
2023-02-17T08:07:39.429Z,9.08
2023-02-17T08:10:00.222Z,9.09
2023-02-17T08:12:21.203Z,9.09
2023-02-17T08:14:26.534Z,9.08
2023-02-17T08:16:30.103Z,9.09
2023-02-17T08:18:36.767Z,9.08
2023-02-17T08:20:40.418Z,9.07
2023-02-17T08:22:43.797Z,9.07
2023-02-17T08:24:47.676Z,9.07
2023-02-17T08:26:51.100Z,9.07
2023-02-17T08:28:54.533Z,9.08
2023-02-17T08:30:58.407Z,9.09
2023-02-17T08:33:02.052Z,9.08
2023-02-17T08:35:07.924Z,9.09
2023-02-17T08:37:12.790Z,9.09
2023-02-17T08:39:18.581Z,9.08
2023-02-17T08:41:25.129Z,9.10
2023-02-17T08:43:28.580Z,9.09
2023-02-17T08:45:32.051Z,9.10
2023-02-17T08:47:35.972Z,9.09
2023-02-17T08:49:39.520Z,9.08
2023-02-17T08:51:44.812Z,9.08
2023-02-17T08:53:48.318Z,9.09
2023-02-17T08:55:51.766Z,9.09
2023-02-17T08:57:55.385Z,9.09
2023-02-17T08:59:58.880Z,9.07
2023-02-17T09:02:02.309Z,9.07
2023-02-17T09:04:07.941Z,9.06
2023-02-17T09:06:11.432Z,9.03
2023-02-17T09:08:16.600Z,9.02
2023-02-17T09:10:20.242Z,9.00
2023-02-17T09:12:23.710Z,9.00
2023-02-17T09:14:27.699Z,8.99
2023-02-17T09:16:31.173Z,8.99
2023-02-17T09:18:34.714Z,8.99
2023-02-17T09:20:39.599Z,8.99
2023-02-17T09:22:43.145Z,9.00
2023-02-17T09:24:47.967Z,9.01
2023-02-17T09:26:51.396Z,9.02
2023-02-17T09:28:54.887Z,9.04
2023-02-17T09:30:58.324Z,9.05
2023-02-17T09:33:02.070Z,9.07
2023-02-17T09:35:07.041Z,9.07
2023-02-17T09:37:12.858Z,9.09
2023-02-17T09:39:16.399Z,9.09
2023-02-17T09:41:24.800Z,9.10
2023-02-17T09:43:31.600Z,9.10
2023-02-17T09:45:37.535Z,9.11
2023-02-17T09:47:46.331Z,9.11
2023-02-17T09:49:56.079Z,9.12
2023-02-17T09:52:06.984Z,9.10
2023-02-17T09:54:17.414Z,9.12
2023-02-17T09:56:32.583Z,9.12
2023-02-17T09:58:42.227Z,9.12
2023-02-17T10:00:48.201Z,9.12
2023-02-17T10:02:59.705Z,9.13
2023-02-17T10:05:06.229Z,9.13
2023-02-17T10:07:16.159Z,9.14
2023-02-17T10:09:24.476Z,9.16
2023-02-17T10:11:34.182Z,9.16
2023-02-17T10:13:39.284Z,9.17
2023-02-17T10:15:47.957Z,9.18
2023-02-17T10:17:58.556Z,9.21
2023-02-17T10:20:06.212Z,9.22
2023-02-17T10:22:15.370Z,9.24
2023-02-17T10:24:18.915Z,9.26
2023-02-17T10:26:44.246Z,9.26
2023-02-17T10:28:54.038Z,9.27
2023-02-17T10:31:04.649Z,9.28
2023-02-17T10:33:15.581Z,9.29
2023-02-17T10:35:24.148Z,9.29
2023-02-17T10:37:34.358Z,9.29
2023-02-17T10:39:49.209Z,9.30
2023-02-17T10:41:56.306Z,9.30
2023-02-17T10:44:02.384Z,9.30
2023-02-17T10:46:09.023Z,9.31
2023-02-17T10:48:17.478Z,9.33
2023-02-17T10:50:24.260Z,9.35
2023-02-17T10:52:37.674Z,9.38
2023-02-17T10:54:46.666Z,9.38
2023-02-17T10:56:55.123Z,9.39
2023-02-17T10:59:07.526Z,9.40
2023-02-17T11:01:12.098Z,9.42
2023-02-17T11:03:21.851Z,9.44
2023-02-17T11:05:27.327Z,9.45
2023-02-17T11:07:35.648Z,9.47
2023-02-17T11:09:46.532Z,9.46
2023-02-17T11:11:54.492Z,9.47
2023-02-17T11:14:12.093Z,9.48
2023-02-17T11:16:26.495Z,9.48
2023-02-17T11:18:34.189Z,9.49
2023-02-17T11:20:42.401Z,9.48
2023-02-17T11:22:48.083Z,9.49
2023-02-17T11:24:59.438Z,9.48
2023-02-17T11:27:05.984Z,9.49
2023-02-17T11:29:12.581Z,9.50
2023-02-17T11:31:25.206Z,9.49
2023-02-17T11:33:33.689Z,9.49
2023-02-17T11:35:49.401Z,9.50
2023-02-17T11:37:53.936Z,9.50
2023-02-17T11:39:57.445Z,9.52
2023-02-17T11:42:00.931Z,9.51
2023-02-17T11:44:04.372Z,9.52
2023-02-17T11:46:22.978Z,9.53
2023-02-17T11:48:44.022Z,9.53
2023-02-17T11:50:55.172Z,9.54
2023-02-17T11:53:14.464Z,9.55
2023-02-17T11:55:23.850Z,9.56
2023-02-17T11:57:38.267Z,9.58
2023-02-17T11:59:57.695Z,9.61
2023-02-17T12:02:20.285Z,9.62
2023-02-17T12:04:28.040Z,9.66
2023-02-17T12:06:39.952Z,9.65
2023-02-17T12:09:04.954Z,9.66
2023-02-17T12:11:18.267Z,9.66
2023-02-17T12:13:35.815Z,9.69
2023-02-17T12:15:57.102Z,9.71
2023-02-17T12:18:17.446Z,9.72
2023-02-17T12:20:40.769Z,9.73
2023-02-17T12:22:50.903Z,9.74
2023-02-17T12:25:04.738Z,9.74
2023-02-17T12:27:19.997Z,9.76
2023-02-17T12:29:41.670Z,9.77
2023-02-17T12:31:54.855Z,9.77
2023-02-17T12:34:04.348Z,9.78
2023-02-17T12:36:12.360Z,9.79
2023-02-17T12:38:19.018Z,9.79
2023-02-17T12:40:33.963Z,9.78
2023-02-17T12:42:41.858Z,9.79
2023-02-17T12:44:48.687Z,9.79
2023-02-17T12:46:55.224Z,9.79
2023-02-17T12:49:07.501Z,9.79
2023-02-17T12:51:16.529Z,9.79
2023-02-17T12:53:26.750Z,9.79
2023-02-17T12:55:37.866Z,9.79
2023-02-17T12:57:48.685Z,9.77
2023-02-17T12:59:54.173Z,9.77
2023-02-17T13:02:02.042Z,9.77
2023-02-17T13:04:08.090Z,9.79
2023-02-17T13:06:26.126Z,9.78
2023-02-17T13:08:37.794Z,9.78
2023-02-17T13:10:42.396Z,9.78
2023-02-17T13:12:57.573Z,9.78
2023-02-17T13:15:02.799Z,9.78
2023-02-17T13:17:07.033Z,9.76
2023-02-17T13:19:11.908Z,9.77
2023-02-17T13:21:27.827Z,9.77
2023-02-17T13:23:36.124Z,9.77
2023-02-17T13:25:39.752Z,9.77
2023-02-17T13:27:43.199Z,9.78
2023-02-17T13:29:46.694Z,9.79
2023-02-17T13:31:53.474Z,9.81
2023-02-17T13:33:58.675Z,9.83
2023-02-17T13:36:13.857Z,9.86
2023-02-17T13:38:27.620Z,9.89
2023-02-17T13:40:37.701Z,9.92
2023-02-17T13:42:44.116Z,9.93
2023-02-17T13:44:49.157Z,9.93
2023-02-17T13:46:53.531Z,9.92
2023-02-17T13:49:02.034Z,9.92
2023-02-17T13:51:09.897Z,9.92
2023-02-17T13:53:27.328Z,9.92
2023-02-17T13:55:30.924Z,9.91
2023-02-17T13:57:36.205Z,9.90
2023-02-17T13:59:40.224Z,9.91
2023-02-17T14:01:44.546Z,9.92
2023-02-17T14:03:50.803Z,9.94
2023-02-17T14:05:55.782Z,9.95
2023-02-17T14:08:04.989Z,9.96
2023-02-17T14:10:19.548Z,9.97
2023-02-17T14:12:24.850Z,9.98
2023-02-17T14:14:32.395Z,9.99
2023-02-17T14:16:37.190Z,10.01
2023-02-17T14:18:43.090Z,10.04
2023-02-17T14:20:46.468Z,10.07
2023-02-17T14:23:04.532Z,10.10
2023-02-17T14:25:12.408Z,10.12
2023-02-17T14:27:15.841Z,10.12
2023-02-17T14:29:19.401Z,10.13
2023-02-17T14:31:23.791Z,10.12
2023-02-17T14:33:27.308Z,10.09
2023-02-17T14:35:32.873Z,10.08
2023-02-17T14:37:37.429Z,10.06
2023-02-17T14:39:42.385Z,10.05
2023-02-17T14:41:45.866Z,10.04
2023-02-17T14:43:49.345Z,10.02
2023-02-17T14:45:53.276Z,9.99
2023-02-17T14:47:57.763Z,9.96
2023-02-17T14:50:01.265Z,9.94
2023-02-17T14:52:19.693Z,9.93
2023-02-17T14:54:26.175Z,9.92
2023-02-17T14:56:35.255Z,9.92
2023-02-17T14:58:38.823Z,9.91
2023-02-17T15:00:42.324Z,9.90
2023-02-17T15:02:45.842Z,9.89
2023-02-17T15:04:49.352Z,9.86
2023-02-17T15:06:54.708Z,9.83
2023-02-17T15:08:58.358Z,9.81
2023-02-17T15:11:02.310Z,9.77
2023-02-17T15:13:07.401Z,9.73
2023-02-17T15:15:14.868Z,9.71
2023-02-17T15:17:18.285Z,9.68
2023-02-17T15:19:21.717Z,9.65
2023-02-17T15:21:28.932Z,9.63
2023-02-17T15:23:35.511Z,9.59
2023-02-17T15:25:38.942Z,9.55
2023-02-17T15:27:42.662Z,9.53
2023-02-17T15:29:48.203Z,9.49
2023-02-17T15:31:53.038Z,9.46
2023-02-17T15:33:59.142Z,9.42
2023-02-17T15:36:02.650Z,9.39
2023-02-17T15:38:06.106Z,9.34
2023-02-17T15:40:15.601Z,9.30
2023-02-17T15:42:20.373Z,9.25
2023-02-17T15:44:26.610Z,9.19
2023-02-17T15:46:33.719Z,9.13
2023-02-17T15:48:37.201Z,9.09
2023-02-17T15:50:40.631Z,9.04
2023-02-17T15:52:45.773Z,9.00
2023-02-17T15:54:49.726Z,8.94
2023-02-17T15:56:54.660Z,8.90
2023-02-17T15:58:59.652Z,8.87
2023-02-17T16:01:04.716Z,8.85
2023-02-17T16:03:11.413Z,8.80
2023-02-17T16:05:16.692Z,8.78
2023-02-17T16:07:20.129Z,8.74
2023-02-17T16:09:23.572Z,8.68
2023-02-17T16:11:28.508Z,8.65
2023-02-17T16:13:32.193Z,8.61
2023-02-17T16:15:37.603Z,8.56
2023-02-17T16:17:41.157Z,8.50
2023-02-17T16:19:46.013Z,8.46
2023-02-17T16:21:49.474Z,8.42
2023-02-17T16:23:58.995Z,8.37
2023-02-17T16:26:03.408Z,8.31
2023-02-17T16:28:12.212Z,8.26
2023-02-17T16:30:18.711Z,8.22
2023-02-17T16:32:22.337Z,8.17
2023-02-17T16:34:26.217Z,8.13
2023-02-17T16:36:35.254Z,8.08
2023-02-17T16:38:38.727Z,8.04
2023-02-17T16:40:47.447Z,8.02
2023-02-17T16:42:51.137Z,7.97
2023-02-17T16:44:54.915Z,7.93
2023-02-17T16:47:00.893Z,7.90
2023-02-17T16:49:20.601Z,7.87
2023-02-17T16:51:24.397Z,7.85
2023-02-17T16:53:29.441Z,7.83
2023-02-17T16:55:34.494Z,7.80
2023-02-17T16:57:39.570Z,7.77
2023-02-17T16:59:45.108Z,7.73
2023-02-17T17:01:53.320Z,7.72
2023-02-17T17:03:58.101Z,7.70
2023-02-17T17:06:17.738Z,7.69
2023-02-17T17:08:22.603Z,7.67
2023-02-17T17:10:30.728Z,7.63
2023-02-17T17:12:34.445Z,7.60
2023-02-17T17:14:37.967Z,7.58
2023-02-17T17:16:43.682Z,7.55
2023-02-17T17:18:47.148Z,7.54
2023-02-17T17:20:51.154Z,7.52
2023-02-17T17:22:54.584Z,7.49
2023-02-17T17:24:58.030Z,7.48
2023-02-17T17:27:02.835Z,7.47
2023-02-17T17:29:07.030Z,7.46
2023-02-17T17:31:11.985Z,7.45
2023-02-17T17:33:17.317Z,7.45
2023-02-17T17:35:21.830Z,7.43
2023-02-17T17:37:25.391Z,7.41
2023-02-17T17:39:28.817Z,7.39
2023-02-17T17:41:32.442Z,7.36
2023-02-17T17:43:37.304Z,7.35
2023-02-17T17:45:40.759Z,7.33
2023-02-17T17:47:44.298Z,7.33
2023-02-17T17:49:48.302Z,7.32
2023-02-17T17:51:52.223Z,7.32
2023-02-17T17:53:56.208Z,7.30
2023-02-17T17:56:00.020Z,7.29
2023-02-17T17:58:03.932Z,7.27
2023-02-17T18:00:11.181Z,7.26
2023-02-17T18:02:18.429Z,7.25
2023-02-17T18:04:21.910Z,7.24
2023-02-17T18:06:28.482Z,7.22
2023-02-17T18:08:31.925Z,7.23
2023-02-17T18:10:35.438Z,7.21
2023-02-17T18:12:40.058Z,7.20
2023-02-17T18:14:45.261Z,7.20
2023-02-17T18:16:50.815Z,7.19
2023-02-17T18:18:55.889Z,7.18
2023-02-17T18:20:59.340Z,7.18
2023-02-17T18:23:02.805Z,7.17
2023-02-17T18:25:07.285Z,7.17
2023-02-17T18:27:10.697Z,7.15
2023-02-17T18:29:14.499Z,7.15
2023-02-17T18:31:19.401Z,7.13
2023-02-17T18:33:24.346Z,7.13
2023-02-17T18:35:27.819Z,7.14
2023-02-17T18:37:31.485Z,7.15
2023-02-17T18:39:34.918Z,7.17
2023-02-17T18:41:38.469Z,7.16
2023-02-17T18:43:41.924Z,7.17
2023-02-17T18:45:49.041Z,7.15
2023-02-17T18:47:52.527Z,7.14
2023-02-17T18:49:57.392Z,7.12
2023-02-17T18:52:00.878Z,7.11
2023-02-17T18:54:05.454Z,7.09
2023-02-17T18:56:12.075Z,7.09
2023-02-17T18:58:15.809Z,7.08
2023-02-17T19:00:19.704Z,7.07
2023-02-17T19:02:23.160Z,7.06
2023-02-17T19:04:26.704Z,7.03
2023-02-17T19:06:34.651Z,7.02
2023-02-17T19:08:38.378Z,6.99
2023-02-17T19:10:41.931Z,6.97
2023-02-17T19:12:45.443Z,6.95
2023-02-17T19:14:53.175Z,6.92
2023-02-17T19:16:56.784Z,6.90
2023-02-17T19:19:01.520Z,6.89
2023-02-17T19:21:05.871Z,6.88
2023-02-17T19:23:10.742Z,6.86
2023-02-17T19:25:14.173Z,6.85
2023-02-17T19:27:17.549Z,6.82
2023-02-17T19:29:22.864Z,6.82
2023-02-17T19:31:26.501Z,6.80
2023-02-17T19:33:30.035Z,6.79
2023-02-17T19:35:33.537Z,6.78
2023-02-17T19:37:37.003Z,6.78
2023-02-17T19:39:41.811Z,6.76
2023-02-17T19:41:45.535Z,6.76
2023-02-17T19:43:50.041Z,6.76
2023-02-17T19:45:54.904Z,6.76
2023-02-17T19:48:02.302Z,6.77
2023-02-17T19:50:07.942Z,6.76
2023-02-17T19:52:12.076Z,6.76
2023-02-17T19:54:15.542Z,6.76
2023-02-17T19:56:23.698Z,6.76
2023-02-17T19:58:27.498Z,6.76
2023-02-17T20:00:31.144Z,6.77
2023-02-17T20:02:34.685Z,6.78
2023-02-17T20:04:38.722Z,6.79
2023-02-17T20:06:44.330Z,6.80
2023-02-17T20:08:48.964Z,6.79
2023-02-17T20:10:52.355Z,6.78
2023-02-17T20:12:59.325Z,6.76
2023-02-17T20:15:03.357Z,6.74
2023-02-17T20:17:07.017Z,6.72
2023-02-17T20:19:11.288Z,6.72
2023-02-17T20:21:16.942Z,6.70
2023-02-17T20:23:20.589Z,6.71
2023-02-17T20:25:24.090Z,6.70
2023-02-17T20:27:27.759Z,6.71
2023-02-17T20:29:35.650Z,6.70
2023-02-17T20:31:40.521Z,6.70
2023-02-17T20:33:44.498Z,6.70
2023-02-17T20:35:48.747Z,6.69
2023-02-17T20:37:52.549Z,6.66
2023-02-17T20:39:55.970Z,6.64
2023-02-17T20:42:01.625Z,6.62
2023-02-17T20:44:05.612Z,6.60
2023-02-17T20:46:15.102Z,6.60
2023-02-17T20:48:18.683Z,6.58
2023-02-17T20:50:22.981Z,6.55
2023-02-17T20:52:26.775Z,6.53
2023-02-17T20:54:30.193Z,6.50
2023-02-17T20:56:35.627Z,6.47
2023-02-17T20:58:39.194Z,6.46
2023-02-17T21:00:42.846Z,6.45
2023-02-17T21:02:48.270Z,6.45
2023-02-17T21:04:51.976Z,6.44
2023-02-17T21:06:55.639Z,6.42
2023-02-17T21:09:01.545Z,6.40
2023-02-17T21:11:05.054Z,6.38
2023-02-17T21:13:08.568Z,6.36
2023-02-17T21:15:12.443Z,6.34
2023-02-17T21:17:15.875Z,6.33
2023-02-17T21:19:21.272Z,6.32
2023-02-17T21:21:24.799Z,6.30
2023-02-17T21:23:28.223Z,6.29
2023-02-17T21:25:31.698Z,6.29
2023-02-17T21:27:35.586Z,6.30
2023-02-17T21:29:39.041Z,6.28
2023-02-17T21:31:42.648Z,6.26
2023-02-17T21:33:46.386Z,6.26
2023-02-17T21:35:53.529Z,6.25
2023-02-17T21:37:57.025Z,6.24
2023-02-17T21:40:00.569Z,6.22
2023-02-17T21:42:04.167Z,6.19
2023-02-17T21:44:25.449Z,6.17
2023-02-17T21:46:30.309Z,6.18
2023-02-17T21:48:33.710Z,6.18
2023-02-17T21:50:37.289Z,6.16
2023-02-17T21:52:42.204Z,6.14
2023-02-17T21:54:45.621Z,6.13
2023-02-17T21:56:49.019Z,6.11
2023-02-17T21:58:54.751Z,6.09
2023-02-17T22:00:58.344Z,6.08
2023-02-17T22:03:02.078Z,6.05
2023-02-17T22:05:05.926Z,6.03
2023-02-17T22:07:09.395Z,6.01
2023-02-17T22:09:18.061Z,5.98
2023-02-17T22:11:23.356Z,5.97
2023-02-17T22:13:26.800Z,5.95
2023-02-17T22:15:30.261Z,5.95
2023-02-17T22:17:35.532Z,5.93
2023-02-17T22:19:38.976Z,5.92
2023-02-17T22:21:43.182Z,5.91
2023-02-17T22:23:46.713Z,5.91
2023-02-17T22:25:51.604Z,5.91
2023-02-17T22:27:55.058Z,5.90
2023-02-17T22:29:58.769Z,5.91
2023-02-17T22:32:02.349Z,5.90
2023-02-17T22:34:09.889Z,5.91
2023-02-17T22:36:15.398Z,5.90
2023-02-17T22:38:18.855Z,5.90
2023-02-17T22:40:22.318Z,5.91
2023-02-17T22:42:27.423Z,5.92
2023-02-17T22:44:31.332Z,5.91
2023-02-17T22:46:35.424Z,5.90
2023-02-17T22:48:40.192Z,5.88
2023-02-17T22:50:43.727Z,5.88
2023-02-17T22:52:47.217Z,5.88
2023-02-17T22:54:50.852Z,5.88
2023-02-17T22:56:54.278Z,5.86
2023-02-17T22:59:01.094Z,5.87
2023-02-17T23:01:05.997Z,5.87
2023-02-17T23:03:09.434Z,5.85
2023-02-17T23:05:12.999Z,5.85
2023-02-17T23:07:16.426Z,5.86
2023-02-17T23:09:21.013Z,5.84
2023-02-17T23:11:39.937Z,5.84
2023-02-17T23:13:44.696Z,5.84
2023-02-17T23:15:49.933Z,5.85
2023-02-17T23:17:57.691Z,5.86
2023-02-17T23:20:01.083Z,5.86
2023-02-17T23:22:07.174Z,5.86
2023-02-17T23:24:10.579Z,5.85
2023-02-17T23:26:15.381Z,5.85
2023-02-17T23:28:20.110Z,5.86
2023-02-17T23:30:24.410Z,5.85
2023-02-17T23:32:29.331Z,5.84
2023-02-17T23:34:32.724Z,5.83
2023-02-17T23:36:39.225Z,5.81
2023-02-17T23:38:42.698Z,5.82
2023-02-17T23:40:49.571Z,5.80
2023-02-17T23:42:53.224Z,5.82
2023-02-17T23:44:56.618Z,5.82
2023-02-17T23:47:00.075Z,5.82
2023-02-17T23:49:06.197Z,5.82
2023-02-17T23:51:09.738Z,5.83
2023-02-17T23:53:13.172Z,5.82
2023-02-17T23:55:16.934Z,5.85
2023-02-17T23:57:20.459Z,5.86
2023-02-17T23:59:24.305Z,5.87
